Terminal Aerodrome Forecast
Issued by NWS Albany, NY

Home | Current Version | Previous Version | Text Only | Print | Product List | Glossary On
Versions: 1 2 3 4 5 6 7 8 9 10 11 12 13 14 15 16 17 18 19 20 21 22 23 24 25 26 27 28
000
FTUS41 KALY 251200 AAA
TAFGFL
TAF AMD
KGFL 251259Z 2513/2612 23010G15KT P6SM SCT050 BKN150
     FM251500 24015G30KT P6SM BKN045
      TEMPO 2516/2520 29020G40KT
     FM252200 26015G25KT P6SM SCT030
     FM260300 26010KT P6SM SCT030
     FM260500 25008KT P6SM BKN030=

USA.gov is the U.S. government's official web portal to all federal, state and local government web resources and services.